Time;durP1;ratioP1;P1;durP2;ratioP2;P2;SDS_P1;SDS_P2;PMS_P1;PMS_P2;Temp;Humidity;BMP_temperature;BMP_pressure;BME280_temperature;BME280_humidity;BME280_pressure;Samples;Min_cycle;Max_cycle;Signal;HPM_P1;HPM_P2
2023/12/09 00:00:48;;;;;;;61.53;27.03;;;-0.20;1.00;;;;;;5018751;28;20787;-71
2023/12/09 00:03:17;;;;;;;59.87;26.27;;;-0.20;1.00;;;;;;5022389;28;20342;-71
2023/12/09 00:05:48;;;;;;;63.97;27.40;;;-0.30;1.00;;;;;;5024873;28;20228;-72
2023/12/09 00:08:16;;;;;;;55.80;26.30;;;-0.30;1.00;;;;;;5018268;28;20359;-72
2023/12/09 00:10:45;;;;;;;57.80;26.97;;;-0.30;1.00;;;;;;5022062;28;20261;-71
2023/12/09 00:13:14;;;;;;;60.40;27.17;;;-0.20;1.00;;;;;;5021200;28;20235;-72
2023/12/09 00:15:42;;;;;;;61.50;26.50;;;-0.20;1.00;;;;;;5025856;28;20235;-72
2023/12/09 00:18:11;;;;;;;60.73;27.57;;;-0.10;1.00;;;;;;5016942;28;20233;-71
2023/12/09 00:20:40;;;;;;;63.57;27.37;;;0.00;1.00;;;;;;5041146;28;20313;-72
2023/12/09 00:23:10;;;;;;;69.23;28.43;;;-0.20;1.00;;;;;;5024666;28;20224;-70
2023/12/09 00:25:39;;;;;;;66.17;29.37;;;-0.20;1.00;;;;;;5025284;28;20237;-72
2023/12/09 00:28:08;;;;;;;61.87;28.00;;;-0.30;1.00;;;;;;5016976;28;20222;-71
2023/12/09 00:30:36;;;;;;;72.53;30.37;;;-0.30;1.00;;;;;;5023529;28;20222;-71
2023/12/09 00:33:05;;;;;;;74.13;30.60;;;-0.40;1.00;;;;;;5025657;28;20221;-70
2023/12/09 00:35:34;;;;;;;72.27;30.73;;;-0.40;1.00;;;;;;5015802;28;20232;-70
2023/12/09 00:38:02;;;;;;;70.80;31.37;;;-0.50;1.00;;;;;;5030310;28;22248;-70
2023/12/09 00:40:32;;;;;;;73.60;30.77;;;-0.40;1.00;;;;;;5016971;28;20605;-71
2023/12/09 00:43:01;;;;;;;79.03;31.17;;;-0.40;1.00;;;;;;5017189;28;20240;-71
2023/12/09 00:45:30;;;;;;;74.57;31.53;;;-0.50;1.00;;;;;;5049774;28;20228;-68
2023/12/09 00:47:59;;;;;;;74.37;30.40;;;-0.40;1.00;;;;;;5021410;28;20228;-70
2023/12/09 00:50:28;;;;;;;73.97;31.50;;;-0.40;1.00;;;;;;5019663;28;20246;-70
2023/12/09 00:52:57;;;;;;;86.37;32.90;;;-0.50;1.00;;;;;;5016756;28;20227;-70
2023/12/09 00:55:25;;;;;;;76.27;31.07;;;-0.70;1.00;;;;;;5022388;28;20302;-70
2023/12/09 00:57:55;;;;;;;74.83;31.57;;;-0.60;1.00;;;;;;5020015;28;20319;-71
2023/12/09 01:00:25;;;;;;;81.47;32.13;;;-0.60;1.00;;;;;;5013810;28;20257;-70
2023/12/09 01:02:55;;;;;;;74.93;32.07;;;-0.50;1.00;;;;;;5017348;28;20223;-70
2023/12/09 01:05:24;;;;;;;80.57;32.83;;;-0.80;1.00;;;;;;5030059;28;20232;-72
2023/12/09 01:07:53;;;;;;;91.43;33.70;;;-0.60;1.00;;;;;;5030370;28;20353;-70
2023/12/09 01:10:21;;;;;;;89.17;33.57;;;-0.60;1.00;;;;;;5025692;28;20234;-67
2023/12/09 01:12:50;;;;;;;79.10;32.17;;;-0.50;1.00;;;;;;5017833;28;20265;-71
2023/12/09 01:15:20;;;;;;;86.37;34.30;;;-0.50;1.00;;;;;;5019871;28;20225;-71
2023/12/09 01:17:48;;;;;;;86.43;32.90;;;-0.50;1.00;;;;;;5019916;28;20230;-72
2023/12/09 01:20:18;;;;;;;93.70;33.77;;;-0.50;1.00;;;;;;5024222;28;20234;-70
2023/12/09 01:22:46;;;;;;;80.33;30.83;;;-0.60;1.00;;;;;;5036733;28;20226;-71
2023/12/09 01:25:15;;;;;;;92.40;33.73;;;-0.60;1.00;;;;;;5021276;28;20236;-70
2023/12/09 01:27:44;;;;;;;87.67;31.83;;;-0.60;1.00;;;;;;5025256;28;20229;-67
2023/12/09 01:30:13;;;;;;;92.30;33.37;;;-0.60;1.00;;;;;;5019663;28;20225;-70
2023/12/09 01:32:43;;;;;;;88.40;33.00;;;-0.60;1.00;;;;;;5018135;28;20294;-73
2023/12/09 01:35:12;;;;;;;93.40;34.07;;;-0.60;1.00;;;;;;5022890;28;20214;-70
2023/12/09 01:37:41;;;;;;;91.17;33.33;;;-0.60;1.00;;;;;;5022589;28;20233;-69
2023/12/09 01:40:14;;;;;;;87.50;32.83;;;-0.70;1.00;;;;;;5036030;28;20241;-70
2023/12/09 01:42:43;;;;;;;93.37;33.10;;;-0.70;1.00;;;;;;5019321;28;20222;-69
2023/12/09 01:45:11;;;;;;;88.23;31.57;;;-0.60;1.00;;;;;;5025291;28;20230;-70
2023/12/09 01:47:40;;;;;;;88.17;32.53;;;-0.70;1.00;;;;;;5023907;28;20223;-69
2023/12/09 01:50:11;;;;;;;99.60;34.43;;;-0.70;1.00;;;;;;5021617;28;20223;-71
2023/12/09 01:52:40;;;;;;;90.23;34.03;;;-0.60;1.00;;;;;;5021884;28;20232;-71
2023/12/09 01:55:11;;;;;;;92.37;34.10;;;-0.60;1.00;;;;;;5022364;28;20407;-72
2023/12/09 01:57:41;;;;;;;92.13;33.33;;;-0.60;1.00;;;;;;5021783;28;20787;-72
2023/12/09 02:00:11;;;;;;;91.23;31.77;;;-0.50;1.00;;;;;;5005684;28;20597;-72
2023/12/09 02:02:40;;;;;;;92.00;31.17;;;-0.50;1.00;;;;;;5005262;28;20226;-73
2023/12/09 02:05:12;;;;;;;91.87;31.10;;;-0.40;1.00;;;;;;5023312;28;20229;-72
2023/12/09 02:07:40;;;;;;;85.53;30.63;;;-0.40;1.00;;;;;;5010342;28;20558;-73
2023/12/09 02:10:10;;;;;;;94.40;32.93;;;-0.40;1.00;;;;;;5011078;28;20249;-73
2023/12/09 02:12:50;;;;;;;95.33;31.07;;;-0.40;1.00;;;;;;5011201;28;20609;-73
2023/12/09 02:15:25;;;;;;;89.30;30.90;;;-0.30;1.00;;;;;;5043438;28;20226;-73
2023/12/09 02:17:58;;;;;;;85.57;30.37;;;-0.40;1.00;;;;;;5010100;28;20218;-72
2023/12/09 02:20:29;;;;;;;88.90;32.23;;;-0.50;1.00;;;;;;5019762;28;20233;-74
2023/12/09 02:23:09;;;;;;;81.03;31.37;;;-0.40;1.00;;;;;;5020547;28;21108;-73
2023/12/09 02:25:38;;;;;;;90.50;31.40;;;-0.50;1.00;;;;;;5015204;28;20237;-73
2023/12/09 02:28:13;;;;;;;95.50;32.17;;;-0.50;1.00;;;;;;5012275;28;20249;-71
2023/12/09 02:30:49;;;;;;;88.73;30.43;;;-0.50;1.00;;;;;;5012417;28;20225;-73
2023/12/09 02:33:21;;;;;;;82.70;29.53;;;-0.50;1.00;;;;;;5045748;28;20618;-73
2023/12/09 02:35:52;;;;;;;84.80;29.70;;;-0.60;1.00;;;;;;5013747;28;20608;-72
2023/12/09 02:38:24;;;;;;;85.07;29.73;;;-0.60;1.00;;;;;;5013131;28;20727;-72
2023/12/09 02:40:53;;;;;;;92.33;30.37;;;-0.60;1.00;;;;;;5015959;28;20714;-73
2023/12/09 02:43:22;;;;;;;89.30;30.30;;;-0.60;1.00;;;;;;5013938;28;20990;-72
2023/12/09 02:45:50;;;;;;;87.90;31.03;;;-0.70;1.00;;;;;;5016590;28;20681;-72
2023/12/09 02:48:19;;;;;;;87.33;30.63;;;-0.60;1.00;;;;;;5024131;28;20777;-72
2023/12/09 02:50:48;;;;;;;83.87;29.30;;;-0.50;1.00;;;;;;5024845;28;20264;-73
2023/12/09 02:53:17;;;;;;;89.10;30.17;;;-0.60;1.00;;;;;;5015677;28;20230;-74
2023/12/09 02:55:47;;;;;;;86.33;31.03;;;-0.50;1.00;;;;;;5021852;28;20234;-73
2023/12/09 02:58:16;;;;;;;97.70;30.40;;;-0.70;1.00;;;;;;5019214;28;21383;-73
2023/12/09 03:00:44;;;;;;;91.10;30.00;;;-0.70;1.00;;;;;;5014906;28;20237;-72
2023/12/09 03:03:13;;;;;;;89.23;30.17;;;-0.60;1.00;;;;;;5019883;28;20303;-68
2023/12/09 03:05:42;;;;;;;81.17;29.00;;;-0.60;1.00;;;;;;5022948;28;20227;-72
2023/12/09 03:08:11;;;;;;;92.20;28.60;;;-0.70;1.00;;;;;;5028832;28;20740;-74
2023/12/09 03:10:40;;;;;;;86.27;29.77;;;-0.70;1.00;;;;;;5026826;28;20297;-74
2023/12/09 03:13:10;;;;;;;80.33;28.33;;;-0.70;1.00;;;;;;5016896;28;20233;-73
2023/12/09 03:15:38;;;;;;;81.97;29.03;;;-0.70;1.00;;;;;;5017092;28;21941;-74
2023/12/09 03:18:07;;;;;;;87.20;29.97;;;-0.70;1.00;;;;;;5032316;28;20265;-74
2023/12/09 03:20:36;;;;;;;95.77;31.23;;;-0.70;1.00;;;;;;5034278;28;20321;-74
2023/12/09 03:23:05;;;;;;;98.87;30.47;;;-0.50;1.00;;;;;;5020632;28;20250;-73
2023/12/09 03:25:34;;;;;;;88.60;29.60;;;-0.60;1.00;;;;;;5048288;28;20251;-73
2023/12/09 03:28:03;;;;;;;87.13;29.47;;;-0.60;1.00;;;;;;5032623;28;20225;-73
2023/12/09 03:30:33;;;;;;;96.60;29.33;;;-0.60;1.00;;;;;;5017256;28;20221;-74
2023/12/09 03:33:02;;;;;;;82.07;28.27;;;-0.60;1.00;;;;;;5033920;28;20226;-74
2023/12/09 03:35:31;;;;;;;91.17;30.50;;;-0.40;1.00;;;;;;5020254;28;21760;-73
2023/12/09 03:37:59;;;;;;;92.53;28.93;;;-0.40;1.00;;;;;;5030269;28;20228;-73
2023/12/09 03:40:28;;;;;;;86.30;30.93;;;-0.40;1.00;;;;;;5018352;28;20448;-73
2023/12/09 03:42:56;;;;;;;85.50;29.23;;;-0.50;1.00;;;;;;5017185;28;22156;-72
2023/12/09 03:45:25;;;;;;;82.57;28.13;;;-0.60;1.00;;;;;;5017449;28;20222;-72
2023/12/09 03:47:55;;;;;;;85.33;30.00;;;-0.50;1.00;;;;;;5018671;28;20231;-72
2023/12/09 03:50:24;;;;;;;83.70;27.97;;;-0.40;1.00;;;;;;5048383;28;20236;-73
2023/12/09 03:52:52;;;;;;;84.33;28.77;;;-0.40;1.00;;;;;;5016991;28;20620;-73
2023/12/09 03:55:21;;;;;;;82.90;29.10;;;-0.40;1.00;;;;;;5026688;28;20584;-73
2023/12/09 03:57:49;;;;;;;86.53;27.90;;;-0.40;1.00;;;;;;5030559;28;20726;-71
2023/12/09 04:00:19;;;;;;;83.70;28.57;;;-0.30;1.00;;;;;;5036069;28;20265;-72
2023/12/09 04:02:48;;;;;;;82.20;28.43;;;-0.40;1.00;;;;;;5039546;28;20227;-72
2023/12/09 04:05:18;;;;;;;86.00;29.57;;;-0.40;1.00;;;;;;5025189;28;20233;-72
2023/12/09 04:07:47;;;;;;;84.50;29.57;;;-0.40;1.00;;;;;;5025893;28;20226;-72
2023/12/09 04:10:15;;;;;;;90.77;29.10;;;-0.30;1.00;;;;;;5039466;28;20637;-72
2023/12/09 04:12:44;;;;;;;84.77;29.63;;;-0.40;1.00;;;;;;5025141;28;20277;-71
2023/12/09 04:15:13;;;;;;;88.50;30.30;;;-0.40;1.00;;;;;;5026843;28;20218;-71
2023/12/09 04:17:42;;;;;;;91.47;28.80;;;-0.30;1.00;;;;;;5027660;28;20223;-73
2023/12/09 04:20:12;;;;;;;83.67;30.33;;;-0.30;1.00;;;;;;5026815;28;20221;-73
2023/12/09 04:22:42;;;;;;;81.83;29.83;;;-0.30;1.00;;;;;;5061345;28;20296;-74
2023/12/09 04:25:11;;;;;;;84.43;29.13;;;-0.50;1.00;;;;;;5027449;28;20226;-74
2023/12/09 04:27:40;;;;;;;84.23;28.60;;;-0.40;1.00;;;;;;5025763;28;20747;-74
2023/12/09 04:30:10;;;;;;;87.60;29.17;;;-0.50;1.00;;;;;;5025382;28;20732;-75
2023/12/09 04:32:39;;;;;;;83.03;29.17;;;-0.40;1.00;;;;;;5022777;28;20218;-73
2023/12/09 04:35:08;;;;;;;80.13;28.20;;;-0.50;1.00;;;;;;5019818;28;20672;-74
2023/12/09 04:37:37;;;;;;;87.83;28.43;;;-0.50;1.00;;;;;;5024080;28;20234;-72
2023/12/09 04:40:10;;;;;;;79.33;27.67;;;-0.50;1.00;;;;;;5022794;28;20245;-73
2023/12/09 04:42:39;;;;;;;80.30;28.53;;;-0.60;1.00;;;;;;5012742;28;20222;-72
2023/12/09 04:45:09;;;;;;;76.73;28.90;;;-0.70;1.00;;;;;;5009815;28;20237;-71
2023/12/09 04:47:38;;;;;;;81.33;29.60;;;-0.60;1.00;;;;;;5012488;28;22120;-73
2023/12/09 04:50:08;;;;;;;87.33;29.90;;;-0.60;1.00;;;;;;5014052;28;20321;-73
2023/12/09 04:52:37;;;;;;;79.20;28.03;;;-0.60;1.00;;;;;;5019205;28;20219;-73
2023/12/09 04:55:08;;;;;;;90.20;30.53;;;-0.70;1.00;;;;;;5019386;28;20311;-71
2023/12/09 04:57:37;;;;;;;88.60;30.50;;;-0.50;1.00;;;;;;5020478;28;20726;-71
2023/12/09 05:00:10;;;;;;;88.73;30.13;;;-0.50;1.00;;;;;;5015969;28;20258;-72
2023/12/09 05:02:39;;;;;;;84.37;29.57;;;-0.60;1.00;;;;;;5031913;28;20291;-72
2023/12/09 05:05:08;;;;;;;84.10;27.67;;;-0.60;1.00;;;;;;5019239;28;20238;-71
2023/12/09 05:07:37;;;;;;;82.10;28.90;;;-0.80;1.00;;;;;;5024911;28;20225;-73
2023/12/09 05:10:08;;;;;;;76.47;27.07;;;-0.70;1.00;;;;;;5024450;28;20218;-73
2023/12/09 05:12:40;;;;;;;84.43;27.47;;;-0.70;1.00;;;;;;5020013;28;20616;-72
2023/12/09 05:15:10;;;;;;;77.87;28.30;;;-0.70;1.00;;;;;;5014082;28;20225;-71
2023/12/09 05:17:39;;;;;;;75.63;26.90;;;-0.70;1.00;;;;;;5017819;28;20214;-72
2023/12/09 05:20:09;;;;;;;79.73;26.20;;;-0.60;1.00;;;;;;5018039;28;20226;-70
2023/12/09 05:22:38;;;;;;;79.23;28.07;;;-0.70;1.00;;;;;;5020880;28;20319;-74
2023/12/09 05:25:09;;;;;;;81.07;26.90;;;-0.60;1.00;;;;;;5017799;28;20320;-73
2023/12/09 05:27:38;;;;;;;79.87;27.73;;;-0.60;1.00;;;;;;5028831;28;20225;-73
2023/12/09 05:30:08;;;;;;;74.63;27.40;;;-0.60;1.00;;;;;;5015760;28;20225;-74
2023/12/09 05:32:37;;;;;;;79.10;27.43;;;-0.60;1.00;;;;;;5018873;28;20229;-72
2023/12/09 05:35:07;;;;;;;80.83;27.57;;;-0.50;1.00;;;;;;5012195;28;20635;-71
2023/12/09 05:37:35;;;;;;;82.63;27.83;;;-0.60;1.00;;;;;;5020032;28;20218;-71
2023/12/09 05:40:06;;;;;;;77.13;28.03;;;-0.50;1.00;;;;;;5036214;28;20233;-71
2023/12/09 05:42:36;;;;;;;87.20;28.27;;;-0.40;1.00;;;;;;5020688;28;20229;-73
2023/12/09 05:45:07;;;;;;;87.20;28.60;;;-0.50;1.00;;;;;;5031016;28;20237;-72
2023/12/09 05:47:35;;;;;;;75.47;27.70;;;-0.50;1.00;;;;;;5018971;28;20226;-73
2023/12/09 05:50:05;;;;;;;84.20;29.10;;;-0.50;1.00;;;;;;5020342;28;20234;-71
2023/12/09 05:52:33;;;;;;;74.47;27.77;;;-0.60;1.00;;;;;;5019903;28;20229;-71
2023/12/09 05:55:02;;;;;;;81.97;29.13;;;-0.50;1.00;;;;;;5016758;28;20225;-71
2023/12/09 05:57:30;;;;;;;75.87;29.13;;;-0.50;1.00;;;;;;5017186;28;20223;-71
2023/12/09 06:00:00;;;;;;;80.83;27.53;;;-0.50;1.00;;;;;;5036318;28;20225;-71
2023/12/09 06:02:31;;;;;;;79.83;28.50;;;-0.60;1.00;;;;;;5020440;28;20225;-73
2023/12/09 06:05:00;;;;;;;83.97;29.27;;;-0.60;1.00;;;;;;5020120;28;20218;-73
2023/12/09 06:07:29;;;;;;;86.60;29.77;;;-0.60;1.00;;;;;;5018591;28;20256;-69
2023/12/09 06:09:57;;;;;;;85.37;28.37;;;-0.70;1.00;;;;;;5018823;28;20226;-71
2023/12/09 06:12:26;;;;;;;85.07;30.37;;;-0.60;1.00;;;;;;5022523;28;20222;-71
2023/12/09 06:14:55;;;;;;;75.03;29.23;;;-0.50;1.00;;;;;;5018984;28;20228;-73
2023/12/09 06:17:25;;;;;;;79.70;29.40;;;-0.40;1.00;;;;;;5022142;28;20225;-70
2023/12/09 06:19:54;;;;;;;78.90;29.07;;;-0.40;1.00;;;;;;5018070;28;20301;-71
2023/12/09 06:22:23;;;;;;;85.00;30.37;;;-0.20;1.00;;;;;;5005563;28;20314;-72
2023/12/09 06:24:52;;;;;;;77.50;28.97;;;-0.30;1.00;;;;;;4998324;28;20242;-70
2023/12/09 06:27:20;;;;;;;93.00;30.63;;;-0.40;1.00;;;;;;5023208;28;20276;-71
2023/12/09 06:29:50;;;;;;;86.33;30.83;;;-0.50;1.00;;;;;;5027263;28;20222;-71
2023/12/09 06:32:19;;;;;;;87.17;29.37;;;-0.40;1.00;;;;;;5027381;28;20223;-73
2023/12/09 06:34:50;;;;;;;82.43;29.07;;;-0.50;1.00;;;;;;5040053;28;20225;-74
2023/12/09 06:37:18;;;;;;;87.97;29.13;;;-0.50;1.00;;;;;;5040026;28;20230;-73
2023/12/09 06:39:47;;;;;;;85.97;30.47;;;-0.50;1.00;;;;;;5029040;28;20222;-73
2023/12/09 06:42:16;;;;;;;91.67;30.50;;;-0.40;1.00;;;;;;5028383;28;20276;-73
2023/12/09 06:44:44;;;;;;;83.33;29.30;;;-0.60;1.00;;;;;;5026245;28;20233;-72
2023/12/09 06:47:13;;;;;;;90.60;31.33;;;-0.60;1.00;;;;;;5023084;28;20358;-72
2023/12/09 06:49:42;;;;;;;93.63;29.30;;;-0.60;1.00;;;;;;5058985;28;20317;-72
2023/12/09 06:52:12;;;;;;;91.80;29.83;;;-0.50;1.00;;;;;;5058760;28;20270;-72
2023/12/09 06:54:40;;;;;;;88.97;30.23;;;-0.40;1.00;;;;;;5025425;28;20667;-73
2023/12/09 06:57:09;;;;;;;98.10;30.97;;;-0.50;1.00;;;;;;5028989;28;20978;-72
2023/12/09 06:59:38;;;;;;;87.20;30.17;;;-0.60;1.00;;;;;;5020286;28;20221;-72
2023/12/09 07:02:06;;;;;;;89.50;30.83;;;-0.60;1.00;;;;;;5016061;28;20399;-72
2023/12/09 07:04:38;;;;;;;84.97;29.43;;;-0.60;1.00;;;;;;5019164;28;20251;-73
2023/12/09 07:07:07;;;;;;;81.57;28.93;;;-0.40;1.00;;;;;;5023003;28;20276;-71
2023/12/09 07:09:47;;;;;;;105.50;31.50;;;-0.40;1.00;;;;;;5010206;28;20213;-72
2023/12/09 07:12:15;;;;;;;96.53;30.67;;;-0.50;1.00;;;;;;5018878;28;20217;-72
2023/12/09 07:14:44;;;;;;;92.43;32.30;;;-0.50;1.00;;;;;;5024370;28;20234;-72
2023/12/09 07:17:12;;;;;;;90.07;30.40;;;-0.60;1.00;;;;;;5020971;28;20707;-72
2023/12/09 07:19:41;;;;;;;84.83;31.33;;;-0.50;1.00;;;;;;5027851;28;20682;-72
2023/12/09 07:22:19;;;;;;;87.10;30.83;;;-0.60;1.00;;;;;;5030469;28;20222;-72
2023/12/09 07:24:48;;;;;;;96.63;30.87;;;-0.60;1.00;;;;;;5028162;28;20245;-72
2023/12/09 07:27:17;;;;;;;93.67;31.33;;;-0.60;1.00;;;;;;5012798;28;20753;-72
2023/12/09 07:29:46;;;;;;;88.67;30.23;;;-0.60;1.00;;;;;;5054362;28;20239;-73
2023/12/09 07:32:15;;;;;;;99.70;30.67;;;-0.50;1.00;;;;;;5023336;28;20219;-73
2023/12/09 07:34:43;;;;;;;94.90;31.63;;;-0.50;1.00;;;;;;5020270;28;20743;-72
2023/12/09 07:37:14;;;;;;;95.30;30.50;;;-0.40;1.00;;;;;;5022224;28;20218;-72
2023/12/09 07:39:43;;;;;;;87.60;30.27;;;-0.30;1.00;;;;;;5057090;28;20282;-72
2023/12/09 07:42:13;;;;;;;90.13;30.80;;;-0.30;1.00;;;;;;5023551;28;20866;-72
2023/12/09 07:44:42;;;;;;;88.83;31.20;;;-0.30;1.00;;;;;;5020568;28;20219;-74
2023/12/09 07:47:10;;;;;;;88.07;30.43;;;-0.20;1.00;;;;;;5018076;28;20503;-73
2023/12/09 07:49:39;;;;;;;88.60;31.50;;;-0.30;1.00;;;;;;5017526;28;20213;-74
2023/12/09 07:52:08;;;;;;;99.77;32.77;;;-0.30;1.00;;;;;;5021566;28;20655;-72
2023/12/09 07:54:37;;;;;;;91.27;31.57;;;-0.20;1.00;;;;;;5024182;28;20312;-73
2023/12/09 07:57:06;;;;;;;97.87;31.53;;;-0.30;1.00;;;;;;5024267;28;20276;-72
2023/12/09 07:59:36;;;;;;;94.70;31.93;;;-0.30;1.00;;;;;;5024360;28;20228;-72
2023/12/09 08:02:05;;;;;;;93.77;32.60;;;-0.20;1.00;;;;;;5018528;28;20218;-72
2023/12/09 08:04:33;;;;;;;100.53;32.30;;;-0.20;1.00;;;;;;5024356;28;20702;-72
2023/12/09 08:07:03;;;;;;;87.63;30.83;;;-0.10;1.00;;;;;;5022891;28;20325;-72
2023/12/09 08:09:31;;;;;;;93.63;31.10;;;-0.10;1.00;;;;;;5023452;28;20213;-72
2023/12/09 08:12:00;;;;;;;94.90;31.80;;;-0.10;1.00;;;;;;5019910;28;20220;-73
2023/12/09 08:14:30;;;;;;;92.87;32.10;;;0.00;1.00;;;;;;5020622;28;20305;-72
2023/12/09 08:17:00;;;;;;;98.47;32.70;;;0.10;1.00;;;;;;5017526;28;20233;-74
2023/12/09 08:19:29;;;;;;;93.27;31.27;;;0.00;1.00;;;;;;5020508;28;20640;-72
2023/12/09 08:21:58;;;;;;;95.03;32.27;;;0.10;1.00;;;;;;5019287;28;20233;-71
2023/12/09 08:24:27;;;;;;;97.23;34.33;;;0.10;1.00;;;;;;5018756;28;20248;-73
2023/12/09 08:26:56;;;;;;;104.53;34.03;;;0.10;1.00;;;;;;5018193;28;20594;-71
2023/12/09 08:29:25;;;;;;;98.93;33.60;;;0.10;1.00;;;;;;5024315;28;20236;-74
2023/12/09 08:31:57;;;;;;;104.97;33.73;;;0.20;1.00;;;;;;5014459;28;20345;-73
2023/12/09 08:34:27;;;;;;;90.60;32.33;;;0.20;1.00;;;;;;5035781;28;20223;-68
2023/12/09 08:36:57;;;;;;;97.87;34.33;;;0.20;1.00;;;;;;5020600;28;20245;-72
2023/12/09 08:39:25;;;;;;;90.63;32.77;;;0.30;1.00;;;;;;5021752;28;20230;-71
2023/12/09 08:41:54;;;;;;;95.03;33.13;;;0.30;1.00;;;;;;5022001;28;20717;-71
2023/12/09 08:44:23;;;;;;;105.43;33.37;;;0.30;1.00;;;;;;5015513;28;20239;-71
2023/12/09 08:46:51;;;;;;;91.77;32.70;;;0.30;1.00;;;;;;5020200;28;20227;-72
2023/12/09 08:49:20;;;;;;;103.80;33.70;;;0.30;1.00;;;;;;5024257;28;20340;-72
2023/12/09 08:51:50;;;;;;;108.20;34.77;;;0.20;1.00;;;;;;5019031;28;20241;-69
2023/12/09 08:54:19;;;;;;;108.90;35.80;;;0.30;1.00;;;;;;5022858;28;20227;-71
2023/12/09 08:56:48;;;;;;;103.20;34.07;;;0.40;1.00;;;;;;5019979;28;20226;-69
2023/12/09 08:59:16;;;;;;;109.83;33.63;;;0.30;1.00;;;;;;5053375;28;20733;-72
2023/12/09 09:01:45;;;;;;;105.33;33.60;;;0.40;1.00;;;;;;5018978;28;20241;-73
2023/12/09 09:04:13;;;;;;;102.63;33.00;;;0.30;1.00;;;;;;5023697;28;20267;-72
2023/12/09 09:06:42;;;;;;;104.67;34.20;;;0.40;1.00;;;;;;5020991;28;20241;-73
2023/12/09 09:09:13;;;;;;;98.27;34.23;;;0.50;1.00;;;;;;5026794;28;20254;-73
2023/12/09 09:11:43;;;;;;;100.93;33.00;;;0.50;1.00;;;;;;5032844;28;20257;-74
2023/12/09 09:14:13;;;;;;;103.87;34.50;;;0.50;1.00;;;;;;5019038;28;20779;-74
2023/12/09 09:16:41;;;;;;;100.57;33.77;;;0.60;1.00;;;;;;5019377;28;20319;-74
2023/12/09 09:19:10;;;;;;;104.40;34.17;;;0.50;1.00;;;;;;5032968;28;20234;-74
2023/12/09 09:21:40;;;;;;;100.97;34.27;;;0.50;1.00;;;;;;5016854;28;20239;-74
2023/12/09 09:24:09;;;;;;;112.93;34.43;;;0.50;1.00;;;;;;5017298;28;20265;-74
2023/12/09 09:26:40;;;;;;;101.73;35.30;;;0.50;1.00;;;;;;5023432;28;20243;-72
2023/12/09 09:29:10;;;;;;;101.07;35.23;;;0.50;1.00;;;;;;5031898;28;20229;-74
2023/12/09 09:31:38;;;;;;;101.37;36.40;;;0.50;1.00;;;;;;5015619;28;20298;-72
2023/12/09 09:34:07;;;;;;;103.17;35.17;;;0.50;1.00;;;;;;5021875;28;20439;-72
2023/12/09 09:36:36;;;;;;;102.03;35.40;;;0.50;1.00;;;;;;5020572;28;20232;-73
2023/12/09 09:39:06;;;;;;;110.07;35.33;;;0.60;1.00;;;;;;5021480;28;20219;-73
2023/12/09 09:41:47;;;;;;;94.93;34.30;;;0.60;1.00;;;;;;5019099;28;20317;-73
2023/12/09 09:44:20;;;;;;;102.00;34.57;;;0.70;1.00;;;;;;5018687;28;20293;-72
2023/12/09 09:46:52;;;;;;;103.63;35.50;;;0.70;1.00;;;;;;5019018;28;20711;-72
2023/12/09 09:49:21;;;;;;;101.97;33.97;;;0.80;1.00;;;;;;5023785;28;20698;-73
2023/12/09 09:51:53;;;;;;;101.53;34.97;;;0.80;1.00;;;;;;5028492;28;20222;-71
2023/12/09 09:54:23;;;;;;;97.73;34.30;;;0.90;1.00;;;;;;5020866;28;20235;-71
2023/12/09 09:56:53;;;;;;;98.43;35.77;;;1.00;1.00;;;;;;5025606;28;20262;-71
2023/12/09 09:59:22;;;;;;;98.53;34.57;;;1.00;1.00;;;;;;5022048;28;20227;-70
2023/12/09 10:01:51;;;;;;;104.83;34.30;;;1.00;1.00;;;;;;5020180;28;20228;-72
2023/12/09 10:04:20;;;;;;;98.57;34.53;;;1.00;1.00;;;;;;5024883;28;20708;-71
2023/12/09 10:06:49;;;;;;;99.17;35.50;;;1.00;1.00;;;;;;5021817;28;20220;-72
2023/12/09 10:09:18;;;;;;;101.97;34.97;;;0.90;1.00;;;;;;5040324;28;20235;-72
2023/12/09 10:11:47;;;;;;;99.07;34.70;;;0.90;1.00;;;;;;5021300;28;20232;-73
2023/12/09 10:14:17;;;;;;;93.47;34.80;;;1.00;1.00;;;;;;5025005;28;20274;-73
2023/12/09 10:16:46;;;;;;;101.33;34.93;;;1.10;1.00;;;;;;5013587;28;20231;-73
2023/12/09 10:19:16;;;;;;;93.80;32.53;;;1.00;1.00;;;;;;5023978;28;20221;-71
2023/12/09 10:21:45;;;;;;;94.03;34.53;;;1.00;1.00;;;;;;5026689;28;20234;-70
2023/12/09 10:24:14;;;;;;;95.33;34.33;;;1.00;1.00;;;;;;5030825;28;20225;-68
2023/12/09 10:26:42;;;;;;;91.77;32.53;;;1.10;1.00;;;;;;5029746;28;20224;-68
2023/12/09 10:29:12;;;;;;;94.87;34.77;;;1.20;1.00;;;;;;5028601;28;20219;-69
2023/12/09 10:31:42;;;;;;;86.93;34.10;;;1.10;1.00;;;;;;5019631;28;20276;-70
2023/12/09 10:34:14;;;;;;;101.93;36.57;;;1.20;1.00;;;;;;5020700;28;20233;-72
2023/12/09 10:36:43;;;;;;;90.60;34.10;;;1.20;1.00;;;;;;5025407;28;20221;-69
2023/12/09 10:39:12;;;;;;;94.83;35.20;;;1.20;1.00;;;;;;5024555;28;20720;-68
2023/12/09 10:41:47;;;;;;;97.57;35.20;;;1.20;1.00;;;;;;5024272;28;20229;-72
2023/12/09 10:44:17;;;;;;;107.33;35.37;;;1.20;1.00;;;;;;5024138;28;20225;-72
2023/12/09 10:46:47;;;;;;;84.57;33.13;;;1.20;1.00;;;;;;5025024;28;20692;-69
2023/12/09 10:49:15;;;;;;;96.07;36.27;;;1.20;1.00;;;;;;5024523;28;20228;-68
2023/12/09 10:51:44;;;;;;;91.43;35.67;;;1.30;1.00;;;;;;5027226;28;20232;-68
2023/12/09 10:54:13;;;;;;;93.53;34.57;;;1.30;1.00;;;;;;5057204;28;20232;-68
2023/12/09 10:56:44;;;;;;;84.03;34.53;;;1.30;1.00;;;;;;5024039;28;20324;-70
2023/12/09 10:59:14;;;;;;;93.70;35.57;;;1.30;1.00;;;;;;5019654;28;20229;-70
2023/12/09 11:01:43;;;;;;;94.90;36.53;;;1.30;1.00;;;;;;5016655;28;20218;-69
2023/12/09 11:04:13;;;;;;;88.43;34.63;;;1.30;1.00;;;;;;5022315;28;20220;-69
2023/12/09 11:06:46;;;;;;;96.47;35.37;;;1.40;1.00;;;;;;5029218;28;20316;-68
2023/12/09 11:09:15;;;;;;;95.13;35.00;;;1.40;1.00;;;;;;5023765;28;20236;-71
2023/12/09 11:11:44;;;;;;;89.30;35.90;;;1.40;1.00;;;;;;5024872;28;20230;-71
2023/12/09 11:14:13;;;;;;;97.57;35.27;;;1.40;1.00;;;;;;5024072;28;20227;-73
2023/12/09 11:16:43;;;;;;;88.30;33.70;;;1.40;1.00;;;;;;5025057;28;20702;-69
2023/12/09 11:19:17;;;;;;;93.20;35.37;;;1.30;1.00;;;;;;5029144;28;20225;-69
2023/12/09 11:21:47;;;;;;;91.80;35.30;;;1.40;1.00;;;;;;5029713;28;20269;-70
2023/12/09 11:24:18;;;;;;;100.13;35.43;;;1.30;1.00;;;;;;5025399;28;20287;-70
2023/12/09 11:26:48;;;;;;;93.80;37.07;;;1.30;1.00;;;;;;5029917;28;20248;-70
2023/12/09 11:29:18;;;;;;;91.53;35.00;;;1.40;1.00;;;;;;5033490;28;20227;-71
2023/12/09 11:31:49;;;;;;;96.20;35.23;;;1.50;1.00;;;;;;5023121;28;20334;-72
2023/12/09 11:34:21;;;;;;;92.20;35.93;;;1.50;1.00;;;;;;5020186;28;20221;-71
2023/12/09 11:36:53;;;;;;;93.67;38.27;;;1.50;1.00;;;;;;5042774;28;20315;-71
2023/12/09 11:39:23;;;;;;;103.40;36.90;;;1.50;1.00;;;;;;5027777;28;20247;-72
2023/12/09 11:41:52;;;;;;;105.63;38.37;;;1.60;1.00;;;;;;5029538;28;20224;-71
2023/12/09 11:44:21;;;;;;;95.30;37.17;;;1.60;1.00;;;;;;5026682;28;20235;-72
2023/12/09 11:46:50;;;;;;;93.47;36.33;;;1.50;1.00;;;;;;5027148;28;20314;-70
2023/12/09 11:49:21;;;;;;;101.40;37.07;;;1.60;1.00;;;;;;5027688;28;20577;-72
2023/12/09 11:51:50;;;;;;;94.17;36.10;;;1.60;1.00;;;;;;5035422;28;20258;-72
2023/12/09 11:54:20;;;;;;;98.20;35.63;;;1.50;1.00;;;;;;5024668;28;20312;-72
2023/12/09 11:56:50;;;;;;;96.87;38.30;;;1.50;1.00;;;;;;5025188;28;20298;-72
2023/12/09 11:59:18;;;;;;;94.60;36.80;;;1.40;1.00;;;;;;5023605;28;20347;-72
2023/12/09 12:01:47;;;;;;;88.27;35.23;;;1.50;1.00;;;;;;5023832;28;20232;-72
2023/12/09 12:04:16;;;;;;;88.33;36.57;;;1.50;1.00;;;;;;5020713;28;20225;-72
2023/12/09 12:06:46;;;;;;;94.50;36.67;;;1.60;1.00;;;;;;5026972;28;20688;-70
2023/12/09 12:09:15;;;;;;;90.10;35.53;;;1.60;1.00;;;;;;5022213;28;20282;-73
2023/12/09 12:11:44;;;;;;;85.87;37.03;;;1.50;1.00;;;;;;5023892;28;20733;-71
2023/12/09 12:14:13;;;;;;;87.93;35.47;;;1.50;1.00;;;;;;5019444;28;20231;-72
2023/12/09 12:16:42;;;;;;;89.00;37.50;;;1.50;1.00;;;;;;5023714;28;20229;-72
2023/12/09 12:19:10;;;;;;;98.23;38.23;;;1.50;1.00;;;;;;5022615;28;20248;-73
2023/12/09 12:21:40;;;;;;;79.67;35.07;;;1.50;1.00;;;;;;5022295;28;20239;-72
2023/12/09 12:24:15;;;;;;;97.50;38.27;;;1.60;1.00;;;;;;5032210;28;20237;-71
2023/12/09 12:26:43;;;;;;;87.67;35.80;;;1.60;1.00;;;;;;5023154;28;20328;-72
2023/12/09 12:29:18;;;;;;;91.43;36.07;;;1.60;1.00;;;;;;5050581;28;20224;-72
2023/12/09 12:31:49;;;;;;;89.60;37.40;;;1.70;1.00;;;;;;5037301;28;20238;-72
2023/12/09 12:34:19;;;;;;;88.67;37.57;;;1.90;1.00;;;;;;5021868;28;20225;-72
2023/12/09 12:36:49;;;;;;;86.60;35.40;;;1.60;1.00;;;;;;5022809;28;20226;-72
2023/12/09 12:39:19;;;;;;;86.30;37.13;;;1.70;1.00;;;;;;5035742;28;20363;-72
2023/12/09 12:41:49;;;;;;;77.97;34.90;;;1.60;1.00;;;;;;5024883;28;20234;-72
2023/12/09 12:44:18;;;;;;;99.03;38.23;;;1.50;1.00;;;;;;5018287;28;20243;-73
2023/12/09 12:46:46;;;;;;;91.30;37.00;;;1.60;1.00;;;;;;5021478;28;20294;-73
2023/12/09 12:49:15;;;;;;;91.20;38.40;;;1.50;1.00;;;;;;5052163;28;20217;-72